Grenadines III — CRA5628 — position and weather

sailwx.info

Track history (hours):
 
Tides and Currents Weather Stations Pressure Air Temp Water Temp Dewpoint Dewpoint Depression Visibility Wind Speed Wind Dir Waves Ship Positions

Grenadines III

Last reported at 2015-Jul-15 18:29 UTC. Time now 2015-Jul-29 22:05 UTC.
Position N 43°08' E 005°46'.
Warning: this ship's position is 14 days out of date.

Type: Pilot. MMSI: 225910870.

Date/timePositionNaut miles runAvg speedWind from/ knotsBaromVisibWave heightAir tempDewpointWater temp
2015-Jul-15 18:29N 43°08' E 005°46'6 6.8
2015-Jul-15 17:34N 43°05' E 005°38'9 9.5
2015-Jul-15 16:33N 43°00' E 005°27'13 9.1
2015-Jul-15 15:11N 42°54' E 005°12'5 8.7
2015-Jul-15 14:33N 42°52' E 005°05'134 8.7
2015-Jul-14 23:13N 41°22' E 002°52'7 9.6
2015-Jul-14 22:29N 41°16' E 002°47'9 9.6
2015-Jul-14 21:33N 41°08' E 002°41'10 9.7
2015-Jul-14 20:30N 40°59' E 002°35'9 9.9
2015-Jul-14 19:33N 40°51' E 002°30'1010.2
2015-Jul-14 18:33N 40°42' E 002°23'1010.0
2015-Jul-14 17:33N 40°33' E 002°17'10 9.6
2015-Jul-14 16:33N 40°24' E 002°11'9 9.0
2015-Jul-14 15:33N 40°16' E 002°06'9 9.1
2015-Jul-14 14:33N 40°08' E 001°60'10 9.5
2015-Jul-14 13:33N 40°00' E 001°54'10 9.9
2015-Jul-14 12:33N 39°51' E 001°48'10 9.8
2015-Jul-14 11:33N 39°43' E 001°42'10 9.7
2015-Jul-14 10:33N 39°34' E 001°36'10 9.7
2015-Jul-14 09:33N 39°26' E 001°30'12 9.9
2015-Jul-14 08:19N 39°15' E 001°23'28 7.3
2015-Jul-14 04:33N 38°47' E 001°22'4 0.5
2015-Jul-13 21:12N 38°46' E 001°26'0 0.0
2015-Jul-13 20:08N 38°46' E 001°26'0 0.0
2015-Jul-13 15:20N 38°46' E 001°26'0 0.0
2015-Jul-13 11:26N 38°46' E 001°26'0 0.0
2015-Jul-13 10:20N 38°46' E 001°26'0 0.0
2015-Jul-13 08:32N 38°46' E 001°26'1 0.6
2015-Jul-13 07:14N 38°45' E 001°26'1 1.0
2015-Jul-13 06:10N 38°46' E 001°25'812.2
2015-Jul-13 05:32N 38°53' E 001°26'  
2015-Jul-10 19:32N 38°48' E 001°25'3 0.2
2015-Jul-10 08:32N 38°50' E 001°25'3 0.3
2015-Jul-09 19:28N 38°54' E 001°27'6 0.9
2015-Jul-09 12:15N 38°51' E 001°19'11 0.6
2015-Jul-08 17:33N 38°56' E 001°31'1 0.9
2015-Jul-08 16:27N 38°57' E 001°32'0 0.0
2015-Jul-08 15:24N 38°57' E 001°32'0 0.0
2015-Jul-08 14:29N 38°57' E 001°32'0 0.0
2015-Jul-08 13:30N 38°57' E 001°32'0 0.0
2015-Jul-08 11:33N 38°57' E 001°32'0 0.0
2015-Jul-08 10:33N 38°57' E 001°32'5 5.2
2015-Jul-08 09:33N 39°00' E 001°37'1010.4
2015-Jul-08 08:33N 39°06' E 001°48'1110.5
2015-Jul-08 07:33N 39°11' E 001°60'1010.3
2015-Jul-08 06:33N 39°17' E 002°11'1010.2
2015-Jul-08 05:33N 39°22' E 002°22'1010.2
2015-Jul-08 04:33N 39°28' E 002°33'4 3.9
2015-Jul-08 03:33N 39°32' E 002°34'0 0.0
2015-Jul-08 01:33N 39°32' E 002°34'0 0.0
2015-Jul-07 23:27N 39°32' E 002°34'0 0.0
2015-Jul-07 22:33N 39°32' E 002°34'0 0.0
2015-Jul-07 21:15N 39°32' E 002°34'0 0.0
2015-Jul-07 19:33N 39°32' E 002°34'1010.3
2015-Jul-07 18:33N 39°24' E 002°43'1212.0
2015-Jul-07 17:33N 39°21' E 002°58'0 0.4
2015-Jul-07 16:32N 39°21' E 002°59'0 0.0
2015-Jul-07 15:26N 39°21' E 002°59'0 0.0
2015-Jul-07 14:32N 39°21' E 002°59'0 0.0
2015-Jul-07 13:32N 39°21' E 002°59'0 0.1
2015-Jul-07 12:27N 39°21' E 002°58'0 0.0
2015-Jul-07 11:30N 39°21' E 002°58'0 0.0
2015-Jul-07 10:33N 39°21' E 002°58'1010.4
2015-Jul-07 09:33N 39°22' E 002°45'1312.6
2015-Jul-07 08:32N 39°27' E 002°30'3 0.2
2015-Jul-06 19:15N 39°29' E 002°28'4 0.6
2015-Jul-06 13:31N 39°32' E 002°25'4 0.2
2015-Jul-05 19:11N 39°29' E 002°28'2 2.4
2015-Jul-05 18:33N 39°30' E 002°26'  
Track history (hours):
 
Tides and Currents Weather Stations Pressure Air Temp Water Temp Dewpoint Dewpoint Depression Visibility Wind Speed Wind Dir Waves Ship Positions

Grenadines III

Last reported at 2015-Jul-15 18:29 UTC. Time now 2015-Jul-29 22:05 UTC.
Position N 43°08' E 005°46'.
Warning: this ship's position is 14 days out of date.

Type: Pilot. MMSI: 225910870.

Date/timePositionNaut miles runAvg speedWind from/ knotsBaromVisibWave heightAir tempDewpointWater temp
2015-Jul-15 18:29N 43°08' E 005°46'6 6.8
2015-Jul-15 17:34N 43°05' E 005°38'9 9.5
2015-Jul-15 16:33N 43°00' E 005°27'13 9.1
2015-Jul-15 15:11N 42°54' E 005°12'5 8.7
2015-Jul-15 14:33N 42°52' E 005°05'134 8.7
2015-Jul-14 23:13N 41°22' E 002°52'7 9.6
2015-Jul-14 22:29N 41°16' E 002°47'9 9.6
2015-Jul-14 21:33N 41°08' E 002°41'10 9.7
2015-Jul-14 20:30N 40°59' E 002°35'9 9.9
2015-Jul-14 19:33N 40°51' E 002°30'1010.2
2015-Jul-14 18:33N 40°42' E 002°23'1010.0
2015-Jul-14 17:33N 40°33' E 002°17'10 9.6
2015-Jul-14 16:33N 40°24' E 002°11'9 9.0
2015-Jul-14 15:33N 40°16' E 002°06'9 9.1
2015-Jul-14 14:33N 40°08' E 001°60'10 9.5
2015-Jul-14 13:33N 40°00' E 001°54'10 9.9
2015-Jul-14 12:33N 39°51' E 001°48'10 9.8
2015-Jul-14 11:33N 39°43' E 001°42'10 9.7
2015-Jul-14 10:33N 39°34' E 001°36'10 9.7
2015-Jul-14 09:33N 39°26' E 001°30'12 9.9
2015-Jul-14 08:19N 39°15' E 001°23'28 7.3
2015-Jul-14 04:33N 38°47' E 001°22'4 0.5
2015-Jul-13 21:12N 38°46' E 001°26'0 0.0
2015-Jul-13 20:08N 38°46' E 001°26'0 0.0
2015-Jul-13 15:20N 38°46' E 001°26'0 0.0
2015-Jul-13 11:26N 38°46' E 001°26'0 0.0
2015-Jul-13 10:20N 38°46' E 001°26'0 0.0
2015-Jul-13 08:32N 38°46' E 001°26'1 0.6
2015-Jul-13 07:14N 38°45' E 001°26'1 1.0
2015-Jul-13 06:10N 38°46' E 001°25'812.2
2015-Jul-13 05:32N 38°53' E 001°26'  
2015-Jul-10 19:32N 38°48' E 001°25'3 0.2
2015-Jul-10 08:32N 38°50' E 001°25'3 0.3
2015-Jul-09 19:28N 38°54' E 001°27'6 0.9
2015-Jul-09 12:15N 38°51' E 001°19'11 0.6
2015-Jul-08 17:33N 38°56' E 001°31'1 0.9
2015-Jul-08 16:27N 38°57' E 001°32'0 0.0
2015-Jul-08 15:24N 38°57' E 001°32'0 0.0
2015-Jul-08 14:29N 38°57' E 001°32'0 0.0
2015-Jul-08 13:30N 38°57' E 001°32'0 0.0
2015-Jul-08 11:33N 38°57' E 001°32'0 0.0
2015-Jul-08 10:33N 38°57' E 001°32'5 5.2
2015-Jul-08 09:33N 39°00' E 001°37'1010.4
2015-Jul-08 08:33N 39°06' E 001°48'1110.5
2015-Jul-08 07:33N 39°11' E 001°60'1010.3
2015-Jul-08 06:33N 39°17' E 002°11'1010.2
2015-Jul-08 05:33N 39°22' E 002°22'1010.2
2015-Jul-08 04:33N 39°28' E 002°33'4 3.9
2015-Jul-08 03:33N 39°32' E 002°34'0 0.0
2015-Jul-08 01:33N 39°32' E 002°34'0 0.0
2015-Jul-07 23:27N 39°32' E 002°34'0 0.0
2015-Jul-07 22:33N 39°32' E 002°34'0 0.0
2015-Jul-07 21:15N 39°32' E 002°34'0 0.0
2015-Jul-07 19:33N 39°32' E 002°34'1010.3
2015-Jul-07 18:33N 39°24' E 002°43'1212.0
2015-Jul-07 17:33N 39°21' E 002°58'0 0.4
2015-Jul-07 16:32N 39°21' E 002°59'0 0.0
2015-Jul-07 15:26N 39°21' E 002°59'0 0.0
2015-Jul-07 14:32N 39°21' E 002°59'0 0.0
2015-Jul-07 13:32N 39°21' E 002°59'0 0.1
2015-Jul-07 12:27N 39°21' E 002°58'0 0.0
2015-Jul-07 11:30N 39°21' E 002°58'0 0.0
2015-Jul-07 10:33N 39°21' E 002°58'1010.4
2015-Jul-07 09:33N 39°22' E 002°45'1312.6
2015-Jul-07 08:32N 39°27' E 002°30'3 0.2
2015-Jul-06 19:15N 39°29' E 002°28'4 0.6
2015-Jul-06 13:31N 39°32' E 002°25'4 0.2
2015-Jul-05 19:11N 39°29' E 002°28'2 2.4
2015-Jul-05 18:33N 39°30' E 002°26'  

Dump ship's entire track history